createdAt,value
2018-08-23T00:01:24.354Z,98219.95
2018-08-23T00:03:53.831Z,98220.17
2018-08-23T00:06:23.132Z,98218.23
2018-08-23T00:08:52.845Z,98220.61
2018-08-23T00:11:26.133Z,98207.67
2018-08-23T00:13:55.485Z,98217.25
2018-08-23T00:16:32.973Z,98209.22
2018-08-23T00:19:03.248Z,98204.89
2018-08-23T00:21:32.576Z,98207.36
2018-08-23T00:24:10.346Z,98215.17
2018-08-23T00:26:45.270Z,98210.20
2018-08-23T00:29:20.117Z,98210.17
2018-08-23T00:31:53.728Z,98207.19
2018-08-23T00:34:26.893Z,98202.94
2018-08-23T00:36:56.920Z,98202.23
2018-08-23T00:39:26.735Z,98194.97
2018-08-23T00:42:01.455Z,98191.45
2018-08-23T00:44:36.958Z,98197.53
2018-08-23T00:47:06.200Z,98194.02
2018-08-23T00:49:35.600Z,98195.39
2018-08-23T00:52:05.003Z,98198.95
2018-08-23T00:54:34.303Z,98194.62
2018-08-23T00:57:03.698Z,98201.30
2018-08-23T00:59:33.207Z,98202.27
2018-08-23T01:02:07.763Z,98200.74
2018-08-23T01:04:43.476Z,98203.94
2018-08-23T01:07:15.707Z,98202.17
2018-08-23T01:09:45.416Z,98200.41
2018-08-23T01:12:14.861Z,98200.34
2018-08-23T01:14:44.264Z,98204.41
2018-08-23T01:17:17.329Z,98198.62
2018-08-23T01:19:52.181Z,98197.58
2018-08-23T01:22:21.587Z,98202.69
2018-08-23T01:24:51.189Z,98195.02
2018-08-23T01:27:25.814Z,98196.24
2018-08-23T01:29:55.143Z,98199.02
2018-08-23T01:32:29.744Z,98189.52
2018-08-23T01:34:59.140Z,98192.89
2018-08-23T01:37:36.795Z,98195.02
2018-08-23T01:40:08.138Z,98185.08
2018-08-23T01:42:38.610Z,98184.19
2018-08-23T01:45:09.287Z,98190.75
2018-08-23T01:47:44.448Z,98184.52
2018-08-23T01:50:14.661Z,98183.78
2018-08-23T01:52:50.031Z,98180.19
2018-08-23T01:55:20.058Z,98179.37
2018-08-23T01:57:50.019Z,98178.77
2018-08-23T02:00:22.337Z,98183.00
2018-08-23T02:02:51.826Z,98185.03
2018-08-23T02:05:21.251Z,98184.55
2018-08-23T02:07:50.585Z,98180.28
2018-08-23T02:10:20.055Z,98180.90
2018-08-23T02:12:50.378Z,98180.17
2018-08-23T02:15:19.987Z,98170.38
2018-08-23T02:17:54.098Z,98176.56
2018-08-23T02:20:24.425Z,98175.20
2018-08-23T02:22:54.439Z,98177.13
2018-08-23T02:25:24.045Z,98171.71
2018-08-23T02:28:01.365Z,98172.23
2018-08-23T02:30:43.432Z,98167.02
2018-08-23T02:33:13.654Z,98172.23
2018-08-23T02:35:54.986Z,98163.84
2018-08-23T02:38:24.803Z,98165.56
2018-08-23T02:40:54.352Z,98167.62
2018-08-23T02:43:23.753Z,98169.73
2018-08-23T02:45:53.804Z,98168.67
2018-08-23T02:48:24.299Z,98166.34
2018-08-23T02:50:54.113Z,98166.42
2018-08-23T02:53:35.290Z,98171.41
2018-08-23T02:56:06.894Z,98168.62
2018-08-23T02:59:00.198Z,98167.76
2018-08-23T03:01:32.122Z,98161.60
2018-08-23T03:04:09.763Z,98167.93
2018-08-23T03:06:53.851Z,98161.22
2018-08-23T03:09:28.406Z,98169.98
2018-08-23T03:11:59.883Z,98159.25
2018-08-23T03:14:29.951Z,98162.13
2018-08-23T03:18:06.148Z,98169.22
2018-08-23T03:20:35.675Z,98162.50
2018-08-23T03:23:05.073Z,98162.52
2018-08-23T03:25:34.421Z,98161.84
2018-08-23T03:28:03.671Z,98160.64
2018-08-23T03:30:32.994Z,98162.16
2018-08-23T03:33:02.373Z,98162.71
2018-08-23T03:35:31.624Z,98159.31
2018-08-23T03:38:00.973Z,98163.31
2018-08-23T03:40:30.375Z,98164.77
2018-08-23T03:42:59.570Z,98169.16
2018-08-23T03:45:29.082Z,98165.34
2018-08-23T03:47:58.284Z,98168.86
2018-08-23T03:50:27.675Z,98165.85
2018-08-23T03:52:57.184Z,98164.35
2018-08-23T03:55:26.892Z,98166.27
2018-08-23T03:58:02.948Z,98165.97
2018-08-23T04:00:37.572Z,98164.00
2018-08-23T04:03:12.092Z,98162.67
2018-08-23T04:05:41.273Z,98166.75
2018-08-23T04:08:10.763Z,98162.63
2018-08-23T04:10:40.129Z,98155.54
2018-08-23T04:13:09.599Z,98158.28
2018-08-23T04:15:38.899Z,98148.19
2018-08-23T04:18:16.909Z,98150.86
2018-08-23T04:20:55.524Z,98150.56
2018-08-23T04:23:24.922Z,98148.02
2018-08-23T04:25:54.529Z,98145.52
2018-08-23T04:28:23.833Z,98143.03
2018-08-23T04:30:53.541Z,98148.27
2018-08-23T04:33:22.939Z,98150.46
2018-08-23T04:35:52.444Z,98152.18
2018-08-23T04:38:21.846Z,98153.98
2018-08-23T04:40:59.138Z,98155.44
2018-08-23T04:43:28.446Z,98145.98
2018-08-23T04:45:57.939Z,98145.52
2018-08-23T04:48:27.647Z,98145.81
2018-08-23T04:50:56.867Z,98150.23
2018-08-23T04:53:26.560Z,98148.38
2018-08-23T04:55:55.955Z,98148.36
2018-08-23T04:58:25.459Z,98142.86
2018-08-23T05:00:54.862Z,98145.30
2018-08-23T05:03:24.475Z,98141.01
2018-08-23T05:05:53.973Z,98141.52
2018-08-23T05:08:23.374Z,98143.13
2018-08-23T05:10:52.776Z,98142.69
2018-08-23T05:13:22.074Z,98148.53
2018-08-23T05:15:51.351Z,98146.30
2018-08-23T05:18:20.777Z,98149.00
2018-08-23T05:20:50.183Z,98152.39
2018-08-23T05:23:20.419Z,98149.24
2018-08-23T05:25:51.960Z,98145.06
2018-08-23T05:28:21.355Z,98142.41
2018-08-23T05:30:50.862Z,98137.84
2018-08-23T05:33:21.578Z,98137.92
2018-08-23T05:35:51.003Z,98135.02
2018-08-23T05:38:20.915Z,98134.09
2018-08-23T05:40:57.231Z,98133.83
2018-08-23T05:43:26.677Z,98139.05
2018-08-23T05:45:56.897Z,98137.44
2018-08-23T05:48:32.441Z,98137.92
2018-08-23T05:51:10.144Z,98134.30
2018-08-23T05:53:41.809Z,98129.48
2018-08-23T05:56:11.607Z,98129.98
2018-08-23T05:58:41.222Z,98122.66
2018-08-23T06:01:10.615Z,98125.78
2018-08-23T06:03:40.018Z,98128.05
2018-08-23T06:06:09.528Z,98131.92
2018-08-23T06:08:43.130Z,98128.70
2018-08-23T06:11:13.023Z,98117.34
2018-08-23T06:13:49.102Z,98124.30
2018-08-23T06:16:18.600Z,98120.55
2018-08-23T06:18:48.000Z,98118.05
2018-08-23T06:21:19.923Z,98125.85
2018-08-23T06:24:10.766Z,98127.89
2018-08-23T06:26:49.957Z,98114.17
2018-08-23T06:29:24.016Z,98111.16
2018-08-23T06:32:13.194Z,98114.70
2018-08-23T06:34:52.885Z,98114.16
2018-08-23T06:37:23.752Z,98114.40
2018-08-23T06:39:53.054Z,98117.29
2018-08-23T06:42:36.529Z,98111.17
2018-08-23T06:45:05.884Z,98112.32
2018-08-23T06:47:35.288Z,98107.17
2018-08-23T06:50:04.793Z,98106.00
2018-08-23T06:52:49.959Z,98107.07
2018-08-23T06:55:27.354Z,98103.66
2018-08-23T06:57:59.827Z,98106.34
2018-08-23T07:00:29.638Z,98107.69
2018-08-23T07:02:59.080Z,98097.56
2018-08-23T07:05:28.570Z,98098.13
2018-08-23T07:07:58.050Z,98092.19
2018-08-23T07:10:27.572Z,98095.44
2018-08-23T07:12:57.838Z,98097.31
2018-08-23T07:15:27.532Z,98090.72
2018-08-23T07:17:57.186Z,98092.35
2018-08-23T07:20:27.231Z,98094.27
2018-08-23T07:22:57.422Z,98099.35
2018-08-23T07:25:27.789Z,98098.56
2018-08-23T07:27:58.854Z,98101.26
2018-08-23T07:30:29.761Z,98099.09
2018-08-23T07:32:59.489Z,98094.84
2018-08-23T07:35:29.294Z,98090.53
2018-08-23T07:37:59.279Z,98088.91
2018-08-23T07:40:29.023Z,98090.25
2018-08-23T07:42:58.769Z,98086.47
2018-08-23T07:45:28.714Z,98089.17
2018-08-23T07:47:58.317Z,98091.55
2018-08-23T07:50:28.010Z,98089.11
2018-08-23T07:52:58.018Z,98088.74
2018-08-23T07:55:27.679Z,98090.60
2018-08-23T07:57:57.482Z,98091.70
2018-08-23T08:00:30.053Z,98092.16
2018-08-23T08:02:59.742Z,98089.19
2018-08-23T08:05:31.341Z,98088.59
2018-08-23T08:08:02.224Z,98089.02
2018-08-23T08:10:36.829Z,98091.66
2018-08-23T08:13:06.714Z,98089.62
2018-08-23T08:15:36.255Z,98093.31
2018-08-23T08:18:10.802Z,98085.08
2018-08-23T08:20:40.893Z,98091.77
2018-08-23T08:23:11.253Z,98093.23
2018-08-23T08:25:41.182Z,98093.64
2018-08-23T08:28:15.888Z,98089.91
2018-08-23T08:30:46.875Z,98094.27
2018-08-23T08:33:18.157Z,98090.03
2018-08-23T08:35:48.288Z,98092.31
2018-08-23T08:38:18.722Z,98081.45
2018-08-23T08:40:51.250Z,98078.70
2018-08-23T08:43:21.152Z,98088.44
2018-08-23T08:45:55.957Z,98086.22
2018-08-23T08:48:30.840Z,98075.27
2018-08-23T08:51:33.346Z,98082.38
2018-08-23T08:54:04.318Z,98077.02
2018-08-23T08:56:41.502Z,98076.72
2018-08-23T08:59:11.990Z,98072.41
2018-08-23T09:01:41.872Z,98075.19
2018-08-23T09:04:16.345Z,98069.27
2018-08-23T09:06:47.909Z,98067.93
2018-08-23T09:09:30.304Z,98063.41
2018-08-23T09:12:02.861Z,98061.73
2018-08-23T09:14:32.606Z,98060.19
2018-08-23T09:17:16.275Z,98047.00
2018-08-23T09:19:57.697Z,98051.81
2018-08-23T09:22:37.906Z,98047.03
2018-08-23T09:25:21.154Z,98044.44
2018-08-23T09:27:51.537Z,98041.75
2018-08-23T09:30:28.889Z,98042.03
2018-08-23T09:33:02.767Z,98039.25
2018-08-23T09:35:33.627Z,98031.70
2018-08-23T09:38:11.861Z,98025.96
2018-08-23T09:40:42.205Z,98027.46
2018-08-23T09:43:12.539Z,98029.94
2018-08-23T09:45:42.345Z,98027.25
2018-08-23T09:48:12.157Z,98024.31
2018-08-23T09:50:42.097Z,98027.01
2018-08-23T09:53:18.038Z,98023.59
2018-08-23T09:55:49.196Z,98020.81
2018-08-23T09:58:25.457Z,98013.20
2018-08-23T10:01:01.163Z,98004.59
2018-08-23T10:03:36.594Z,98003.40
2018-08-23T10:06:12.687Z,97999.66
2018-08-23T10:08:48.603Z,98005.91
2018-08-23T10:11:24.564Z,97991.69
2018-08-23T10:13:59.488Z,97992.73
2018-08-23T10:16:34.633Z,97987.02
2018-08-23T10:19:10.199Z,97986.19
2018-08-23T10:21:45.103Z,97985.75
2018-08-23T10:24:20.165Z,97979.45
2018-08-23T10:26:49.978Z,97983.04
2018-08-23T10:29:19.704Z,97982.81
2018-08-23T10:31:49.381Z,97976.89
2018-08-23T10:34:19.229Z,97975.16
2018-08-23T10:36:49.209Z,97974.79
2018-08-23T10:39:19.055Z,97964.04
2018-08-23T10:41:48.738Z,97964.99
2018-08-23T10:44:18.660Z,97973.66
2018-08-23T10:46:53.313Z,97970.23
2018-08-23T10:49:23.410Z,97863.28
2018-08-23T10:51:53.268Z,97941.45
2018-08-23T10:54:22.738Z,97960.23
2018-08-23T10:56:52.426Z,97950.41
2018-08-23T10:59:22.328Z,97956.38
2018-08-23T11:01:53.178Z,97948.27
2018-08-23T11:04:22.845Z,97950.31
2018-08-23T11:06:58.662Z,97946.11
2018-08-23T11:09:33.184Z,97940.30
2018-08-23T11:12:03.182Z,97944.77
2018-08-23T11:14:37.911Z,97938.61
2018-08-23T11:17:13.723Z,97931.19
2018-08-23T11:19:48.553Z,97924.69
2018-08-23T11:22:18.259Z,97927.39
2018-08-23T11:24:49.348Z,97917.16
2018-08-23T11:27:19.214Z,97912.87
2018-08-23T11:29:49.089Z,97908.73
2018-08-23T11:32:20.164Z,97911.39
2018-08-23T11:34:50.026Z,97913.23
2018-08-23T11:37:19.699Z,97874.17
2018-08-23T11:39:50.077Z,97903.98
2018-08-23T11:42:19.830Z,97901.67
2018-08-23T11:44:50.617Z,97898.06
2018-08-23T11:47:20.270Z,97896.92
2018-08-23T11:49:49.989Z,97897.34
2018-08-23T11:52:19.853Z,97888.48
2018-08-23T11:54:50.562Z,97896.69
2018-08-23T11:57:21.975Z,97888.30
2018-08-23T11:59:53.492Z,97889.86
2018-08-23T12:02:23.385Z,97887.47
2018-08-23T12:04:56.144Z,97877.45
2018-08-23T12:07:27.074Z,97876.73
2018-08-23T12:09:56.947Z,97877.65
2018-08-23T12:12:26.624Z,97882.42
2018-08-23T12:15:03.000Z,97872.03
2018-08-23T12:17:38.059Z,97870.72
2018-08-23T12:20:12.113Z,97868.69
2018-08-23T12:22:45.378Z,97860.36
2018-08-23T12:25:16.026Z,97857.05
2018-08-23T12:27:55.455Z,97852.56
2018-08-23T12:30:25.411Z,97852.89
2018-08-23T12:32:55.498Z,97850.63
2018-08-23T12:35:27.358Z,97862.74
2018-08-23T12:38:05.553Z,97853.27
2018-08-23T12:40:42.071Z,97853.64
2018-08-23T12:43:15.266Z,97838.59
2018-08-23T12:45:47.318Z,97837.73
2018-08-23T12:48:18.520Z,97825.25
2018-08-23T12:50:48.953Z,97816.70
2018-08-23T12:53:19.507Z,97830.08
2018-08-23T12:55:51.405Z,97828.17
2018-08-23T12:58:22.905Z,97815.59
2018-08-23T13:00:53.801Z,97820.73
2018-08-23T13:03:26.974Z,97808.52
2018-08-23T13:06:00.131Z,97807.44
2018-08-23T13:08:31.270Z,97798.04
2018-08-23T13:11:02.713Z,97806.48
2018-08-23T13:13:34.210Z,97801.47
2018-08-23T13:16:04.290Z,97799.91
2018-08-23T13:18:35.767Z,97807.55
2018-08-23T13:21:06.298Z,97801.95
2018-08-23T13:23:46.826Z,97807.08
2018-08-23T13:26:19.528Z,97805.22
2018-08-23T13:28:49.487Z,97800.81
2018-08-23T13:31:19.442Z,97806.36
2018-08-23T13:33:50.370Z,97798.95
2018-08-23T13:36:20.480Z,97792.23
2018-08-23T13:38:51.362Z,97794.13
2018-08-23T13:41:21.499Z,97791.50
2018-08-23T13:43:51.676Z,97783.09
2018-08-23T13:46:22.970Z,97786.22
2018-08-23T13:48:53.846Z,97786.13
2018-08-23T13:51:26.641Z,97788.96
2018-08-23T13:53:56.740Z,97786.78
2018-08-23T13:56:27.195Z,97796.09
2018-08-23T13:58:57.539Z,97799.45
2018-08-23T14:01:28.642Z,97792.46
2018-08-23T14:04:00.354Z,97792.94
2018-08-23T14:06:33.723Z,97796.56
2018-08-23T14:09:05.491Z,97791.79
2018-08-23T14:11:40.529Z,97794.77
2018-08-23T14:14:13.443Z,97795.56
2018-08-23T14:16:44.887Z,97789.84
2018-08-23T14:19:16.160Z,97787.54
2018-08-23T14:21:48.131Z,97767.61
2018-08-23T14:24:19.891Z,97772.42
2018-08-23T14:26:52.056Z,97766.63
2018-08-23T14:29:24.848Z,97763.22
2018-08-23T14:31:56.644Z,97761.21
2018-08-23T14:34:26.738Z,97756.67
2018-08-23T14:36:57.379Z,97755.77
2018-08-23T14:39:29.662Z,97754.75
2018-08-23T14:41:59.764Z,97756.98
2018-08-23T14:44:32.379Z,97750.05
2018-08-23T14:47:07.226Z,97745.52
2018-08-23T14:49:39.589Z,97730.17
2018-08-23T14:52:09.426Z,97747.31
2018-08-23T14:54:41.746Z,97738.18
2018-08-23T14:57:17.890Z,97738.93
2018-08-23T14:59:47.977Z,97735.70
2018-08-23T15:02:19.100Z,97735.61
2018-08-23T15:04:49.676Z,97742.72
2018-08-23T15:07:21.573Z,97735.16
2018-08-23T15:09:51.441Z,97738.93
2018-08-23T15:12:22.247Z,97738.06
2018-08-23T15:14:52.428Z,97750.53
2018-08-23T15:17:22.317Z,97743.78
2018-08-23T15:19:53.752Z,97748.72
2018-08-23T15:22:23.591Z,97736.45
2018-08-23T15:24:53.512Z,97746.07
2018-08-23T15:27:33.967Z,97729.04
2018-08-23T15:30:05.060Z,97735.78
2018-08-23T15:32:36.615Z,97728.80
2018-08-23T15:35:06.825Z,97733.00
2018-08-23T15:37:36.918Z,97725.98
2018-08-23T15:40:09.707Z,97728.05
2018-08-23T15:42:41.272Z,97733.98
2018-08-23T15:45:12.208Z,97733.66
2018-08-23T15:47:42.655Z,97724.71
2018-08-23T15:50:13.217Z,97726.61
2018-08-23T15:52:44.858Z,97721.84
2018-08-23T15:55:14.886Z,97720.18
2018-08-23T15:57:44.718Z,97717.61
2018-08-23T16:00:16.129Z,97721.79
2018-08-23T16:02:48.879Z,97719.59
2018-08-23T16:05:19.466Z,97713.94
2018-08-23T16:07:49.537Z,97713.84
2018-08-23T16:10:19.885Z,97716.77
2018-08-23T16:12:50.398Z,97719.98
2018-08-23T16:15:22.234Z,97727.57
2018-08-23T16:17:57.643Z,97716.34
2018-08-23T16:20:32.913Z,97712.80
2018-08-23T16:23:02.418Z,97726.44
2018-08-23T16:25:36.194Z,97725.20
2018-08-23T16:28:06.264Z,97722.59
2018-08-23T16:30:35.951Z,97727.66
2018-08-23T16:33:05.870Z,97729.48
2018-08-23T16:35:41.065Z,97717.64
2018-08-23T16:38:11.631Z,97726.63
2018-08-23T16:40:41.456Z,97720.84
2018-08-23T16:43:12.338Z,97721.96
2018-08-23T16:45:42.920Z,97714.00
2018-08-23T16:48:12.392Z,97709.37
2018-08-23T16:50:42.028Z,97708.06
2018-08-23T16:53:11.566Z,97708.28
2018-08-23T16:55:41.307Z,97703.24
2018-08-23T16:58:11.969Z,97703.84
2018-08-23T17:00:41.580Z,97703.80
2018-08-23T17:03:11.026Z,97702.49
2018-08-23T17:05:40.738Z,97706.21
2018-08-23T17:08:10.815Z,97698.96
2018-08-23T17:10:40.308Z,97698.97
2018-08-23T17:13:13.902Z,97705.16
2018-08-23T17:15:48.848Z,97695.80
2018-08-23T17:18:18.496Z,97700.77
2018-08-23T17:20:47.922Z,97701.02
2018-08-23T17:23:17.514Z,97698.38
2018-08-23T17:25:46.959Z,97698.27
2018-08-23T17:28:16.673Z,97703.24
2018-08-23T17:30:46.265Z,97698.92
2018-08-23T17:33:15.695Z,97700.63
2018-08-23T17:35:45.183Z,97705.20
2018-08-23T17:38:14.629Z,97706.47
2018-08-23T17:40:44.194Z,97702.09
2018-08-23T17:43:13.685Z,97709.38
2018-08-23T17:45:43.103Z,97710.84
2018-08-23T17:48:12.707Z,97710.93
2018-08-23T17:50:42.110Z,97706.78
2018-08-23T17:53:11.411Z,97704.30
2018-08-23T17:55:40.726Z,97706.44
2018-08-23T17:58:10.214Z,97711.06
2018-08-23T18:00:40.041Z,97711.72
2018-08-23T18:03:09.925Z,97710.67
2018-08-23T18:05:39.445Z,97703.64
2018-08-23T18:08:08.951Z,97703.98
2018-08-23T18:10:38.353Z,97704.58
2018-08-23T18:13:07.751Z,97702.50
2018-08-23T18:15:42.587Z,97711.14
2018-08-23T18:18:12.095Z,97709.50
2018-08-23T18:20:41.871Z,97719.33
2018-08-23T18:23:11.504Z,97713.24
2018-08-23T18:25:40.977Z,97712.99
2018-08-23T18:28:10.510Z,97710.44
2018-08-23T18:30:40.025Z,97706.59
2018-08-23T18:33:10.551Z,97704.98
2018-08-23T18:35:40.025Z,97697.80
2018-08-23T18:38:09.888Z,97702.74
2018-08-23T18:40:40.733Z,97699.41
2018-08-23T18:43:10.980Z,97701.77
2018-08-23T18:45:40.791Z,97703.57
2018-08-23T18:48:10.442Z,97707.55
2018-08-23T18:50:40.979Z,97707.44
2018-08-23T18:53:10.802Z,97708.44
2018-08-23T18:55:40.527Z,97711.03
2018-08-23T18:58:10.404Z,97707.78
2018-08-23T19:00:40.425Z,97712.08
2018-08-23T19:03:10.230Z,97714.20
2018-08-23T19:05:40.467Z,97717.02
2018-08-23T19:08:10.673Z,97725.07
2018-08-23T19:10:41.683Z,97731.71
2018-08-23T19:13:11.807Z,97733.25
2018-08-23T19:15:47.105Z,97742.83
2018-08-23T19:18:17.041Z,97744.82
2018-08-23T19:20:46.936Z,97756.30
2018-08-23T19:23:17.027Z,97761.80
2018-08-23T19:25:46.857Z,97765.04
2018-08-23T19:28:16.644Z,97765.02
2018-08-23T19:30:46.614Z,97775.08
2018-08-23T19:33:17.507Z,97771.11
2018-08-23T19:35:48.663Z,97769.81
2018-08-23T19:38:18.570Z,97766.45
2018-08-23T19:40:48.318Z,97774.55
2018-08-23T19:43:18.813Z,97773.47
2018-08-23T19:45:53.751Z,97768.86
2018-08-23T19:48:23.756Z,97777.40
2018-08-23T19:50:53.766Z,97771.30
2018-08-23T19:53:23.787Z,97774.09
2018-08-23T19:55:53.896Z,97772.38
2018-08-23T19:58:24.073Z,97775.22
2018-08-23T20:00:54.145Z,97777.66
2018-08-23T20:03:23.961Z,97774.82
2018-08-23T20:05:53.440Z,97778.45
2018-08-23T20:08:22.859Z,97775.91
2018-08-23T20:10:53.059Z,97774.41
2018-08-23T20:13:22.678Z,97776.09
2018-08-23T20:15:52.187Z,97775.30
2018-08-23T20:18:21.977Z,97772.59
2018-08-23T20:20:51.775Z,97781.17
2018-08-23T20:23:22.461Z,97775.34
2018-08-23T20:25:52.078Z,97774.62
2018-08-23T20:28:21.654Z,97782.22
2018-08-23T20:30:51.222Z,97778.87
2018-08-23T20:33:20.755Z,97779.61
2018-08-23T20:35:50.208Z,97778.75
2018-08-23T20:38:19.662Z,97785.14
2018-08-23T20:40:49.168Z,97775.49
2018-08-23T20:43:18.634Z,97781.47
2018-08-23T20:45:48.180Z,97784.17
2018-08-23T20:48:17.680Z,97781.66
2018-08-23T20:50:47.288Z,97790.91
2018-08-23T20:53:16.690Z,97787.54
2018-08-23T20:55:46.196Z,97787.12
2018-08-23T20:58:15.509Z,97785.61
2018-08-23T21:00:44.996Z,97798.31
2018-08-23T21:03:14.469Z,97799.20
2018-08-23T21:05:43.802Z,97801.50
2018-08-23T21:08:13.132Z,97797.23
2018-08-23T21:10:42.606Z,97793.99
2018-08-23T21:13:12.216Z,97798.61
2018-08-23T21:15:41.717Z,97796.52
2018-08-23T21:18:12.144Z,97805.41
2018-08-23T21:20:42.161Z,97805.31
2018-08-23T21:23:11.610Z,97801.88
2018-08-23T21:25:40.860Z,97806.91
2018-08-23T21:28:10.162Z,97796.95
2018-08-23T21:30:39.564Z,97794.58
2018-08-23T21:33:08.867Z,97791.20
2018-08-23T21:35:38.372Z,97789.09
2018-08-23T21:38:08.182Z,97788.34
2018-08-23T21:40:37.415Z,97781.88
2018-08-23T21:43:06.780Z,97774.91
2018-08-23T21:45:36.183Z,97779.27
2018-08-23T21:48:05.892Z,97781.14
2018-08-23T21:50:35.120Z,97779.80
2018-08-23T21:53:04.591Z,97776.55
2018-08-23T21:55:36.862Z,97774.66
2018-08-23T21:58:09.238Z,97771.41
2018-08-23T22:00:43.642Z,97771.39
2018-08-23T22:03:13.841Z,97772.41
2018-08-23T22:05:43.585Z,97763.30
2018-08-23T22:08:12.836Z,97757.14
2018-08-23T22:10:42.492Z,97746.61
2018-08-23T22:13:12.186Z,97748.25
2018-08-23T22:15:46.625Z,97745.80
2018-08-23T22:18:16.640Z,97744.52
2018-08-23T22:20:45.871Z,97738.89
2018-08-23T22:23:15.249Z,97740.80
2018-08-23T22:25:44.637Z,97735.98
2018-08-23T22:28:14.143Z,97732.52
2018-08-23T22:30:43.547Z,97729.83
2018-08-23T22:33:13.645Z,97732.00
2018-08-23T22:35:43.270Z,97731.66
2018-08-23T22:38:12.675Z,97739.75
2018-08-23T22:40:42.177Z,97777.28
2018-08-23T22:43:11.568Z,97809.88
2018-08-23T22:45:40.973Z,97812.02
2018-08-23T22:48:10.373Z,97805.80
2018-08-23T22:50:39.876Z,97810.09
2018-08-23T22:53:09.382Z,97799.33
2018-08-23T22:55:38.783Z,97795.02
2018-08-23T22:58:08.109Z,97790.42
2018-08-23T23:00:40.658Z,97779.95
2018-08-23T23:03:15.317Z,97765.37
2018-08-23T23:05:44.992Z,97744.94
2018-08-23T23:08:14.397Z,97736.06
2018-08-23T23:10:43.899Z,97720.73
2018-08-23T23:13:13.260Z,97717.73
2018-08-23T23:15:42.703Z,97709.12
2018-08-23T23:18:12.105Z,97692.45
2018-08-23T23:20:41.606Z,97691.29
2018-08-23T23:23:10.843Z,97686.17
2018-08-23T23:25:40.209Z,97677.30
2018-08-23T23:28:09.406Z,97691.50
2018-08-23T23:30:38.809Z,97696.30
2018-08-23T23:33:08.211Z,97694.64
2018-08-23T23:35:37.511Z,97691.64
2018-08-23T23:38:07.011Z,97708.75
2018-08-23T23:40:36.214Z,97708.36
2018-08-23T23:43:05.723Z,97696.01
2018-08-23T23:45:35.102Z,97715.63
2018-08-23T23:48:04.520Z,97719.88
2018-08-23T23:50:33.820Z,97726.61
2018-08-23T23:53:03.222Z,97724.76
2018-08-23T23:55:32.625Z,97720.67
2018-08-23T23:58:02.026Z,97714.00
